Time;durP1;ratioP1;P1;durP2;ratioP2;P2;SDS_P1;SDS_P2;PMS_P1;PMS_P2;Temp;Humidity;BMP_temperature;BMP_pressure;BME280_temperature;BME280_humidity;BME280_pressure;Samples;Min_cycle;Max_cycle;Signal;HPM_P1;HPM_P2
2023/01/21 00:01:52;;;;;;;9.65;4.22;;;;;;;;;;5006030;28;20030;-82
2023/01/21 00:04:18;;;;;;;10.10;5.25;;;;;;;;;;5006263;28;20032;-81
2023/01/21 00:06:43;;;;;;;11.75;5.32;;;;;;;;;;5004380;28;20537;-81
2023/01/21 00:09:08;;;;;;;12.63;4.97;;;;;;;;;;5006678;28;20049;-81
2023/01/21 00:11:33;;;;;;;9.60;4.68;;;;;;;;;;5006735;28;20025;-81
2023/01/21 00:13:59;;;;;;;12.48;5.25;;;;;;;;;;5023986;28;20034;-80
2023/01/21 00:16:24;;;;;;;12.30;5.07;;;;;;;;;;5007247;28;20037;-81
2023/01/21 00:18:49;;;;;;;18.13;5.78;;;;;;;;;;5024960;28;20066;-81
2023/01/21 00:21:15;;;;;;;12.57;5.63;;;;;;;;;;5006622;28;20036;-82
2023/01/21 00:23:40;;;;;;;14.32;5.97;;;;;;;;;;5022027;28;20080;-80
2023/01/21 00:26:08;;;;;;;12.27;6.18;;;;;;;;;;5020704;28;20029;-80
2023/01/21 00:28:35;;;;;;;12.25;5.35;;;;;;;;;;5024436;28;20030;-80
2023/01/21 00:31:03;;;;;;;16.58;6.35;;;;;;;;;;5025280;28;20026;-82
2023/01/21 00:33:29;;;;;;;16.27;5.93;;;;;;;;;;5023462;28;20030;-82
2023/01/21 00:36:02;;;;;;;12.45;5.53;;;;;;;;;;5024739;28;20046;-81
2023/01/21 00:38:28;;;;;;;18.45;6.53;;;;;;;;;;5024517;28;20037;-82
2023/01/21 00:41:04;;;;;;;21.58;7.65;;;;;;;;;;5006363;28;20026;-81
2023/01/21 00:43:30;;;;;;;16.02;7.30;;;;;;;;;;5024186;28;20034;-81
2023/01/21 00:45:55;;;;;;;18.63;7.35;;;;;;;;;;5005303;28;20025;-80
2023/01/21 00:48:21;;;;;;;17.63;7.40;;;;;;;;;;5023066;28;20368;-79
2023/01/21 00:50:46;;;;;;;16.08;6.30;;;;;;;;;;5023068;28;20033;-80
2023/01/21 00:53:11;;;;;;;16.52;6.47;;;;;;;;;;5023042;28;20080;-79
2023/01/21 00:55:36;;;;;;;21.38;7.45;;;;;;;;;;5023018;28;20026;-78
2023/01/21 00:58:01;;;;;;;21.35;7.47;;;;;;;;;;5023081;28;20033;-80
2023/01/21 01:00:27;;;;;;;19.73;6.55;;;;;;;;;;5005420;28;20395;-80
2023/01/21 01:02:52;;;;;;;15.10;6.05;;;;;;;;;;5021849;28;20101;-80
2023/01/21 01:05:18;;;;;;;30.20;6.85;;;;;;;;;;5023123;28;20059;-79
2023/01/21 01:07:46;;;;;;;19.33;6.82;;;;;;;;;;5021731;28;20032;-79
2023/01/21 01:10:11;;;;;;;10.57;4.55;;;;;;;;;;5003349;28;20029;-79
2023/01/21 01:12:36;;;;;;;16.90;6.53;;;;;;;;;;5021865;28;20320;-78
2023/01/21 01:15:01;;;;;;;10.38;5.57;;;;;;;;;;5021035;28;20033;-81
2023/01/21 01:17:27;;;;;;;16.23;6.63;;;;;;;;;;5004129;28;20033;-80
2023/01/21 01:19:52;;;;;;;16.15;6.05;;;;;;;;;;5019653;28;20033;-80
2023/01/21 01:22:17;;;;;;;15.23;5.38;;;;;;;;;;5003440;28;20550;-80
2023/01/21 01:24:42;;;;;;;18.73;4.78;;;;;;;;;;5002522;28;20037;-79
2023/01/21 01:27:08;;;;;;;20.05;7.40;;;;;;;;;;5003132;28;20101;-79
2023/01/21 01:29:33;;;;;;;20.73;7.65;;;;;;;;;;5022723;28;20061;-80
2023/01/21 01:31:58;;;;;;;16.67;6.32;;;;;;;;;;5007579;28;20034;-81
2023/01/21 01:34:23;;;;;;;17.27;7.07;;;;;;;;;;5006659;28;20034;-81
2023/01/21 01:36:49;;;;;;;22.92;6.55;;;;;;;;;;5006750;28;20029;-80
2023/01/21 01:39:14;;;;;;;17.85;8.15;;;;;;;;;;5023898;28;20026;-81
2023/01/21 01:41:39;;;;;;;19.42;7.90;;;;;;;;;;5024686;28;20507;-81
2023/01/21 01:44:43;;;;;;;16.83;6.70;;;;;;;;;;5025659;28;20467;-82
2023/01/21 01:47:08;;;;;;;14.77;5.93;;;;;;;;;;5024745;28;20034;-81
2023/01/21 01:49:33;;;;;;;20.35;7.80;;;;;;;;;;5006730;28;20022;-81
2023/01/21 01:52:01;;;;;;;21.15;7.72;;;;;;;;;;5023716;28;20036;-81
2023/01/21 01:54:48;;;;;;;13.70;5.88;;;;;;;;;;5004575;28;20025;-80
2023/01/21 01:57:19;;;;;;;9.63;4.90;;;;;;;;;;5021976;28;20057;-81
2023/01/21 01:59:46;;;;;;;12.82;5.55;;;;;;;;;;5004108;28;20022;-80
2023/01/21 02:02:14;;;;;;;12.70;5.72;;;;;;;;;;5004266;28;20026;-80
2023/01/21 02:04:44;;;;;;;12.02;5.07;;;;;;;;;;5022631;28;20026;-81
2023/01/21 02:07:10;;;;;;;19.05;7.80;;;;;;;;;;5023657;28;20033;-80
2023/01/21 02:09:35;;;;;;;12.35;5.65;;;;;;;;;;5024528;28;20395;-80
2023/01/21 02:12:03;;;;;;;13.90;5.53;;;;;;;;;;5024171;28;20029;-80
2023/01/21 02:14:30;;;;;;;17.90;7.03;;;;;;;;;;5023469;28;20026;-80
2023/01/21 02:17:08;;;;;;;14.55;6.72;;;;;;;;;;5025394;28;20018;-79
2023/01/21 02:20:02;;;;;;;19.92;8.07;;;;;;;;;;5025384;28;20032;-80
2023/01/21 02:22:46;;;;;;;23.20;8.77;;;;;;;;;;5006512;28;20072;-80
2023/01/21 02:26:08;;;;;;;20.58;7.45;;;;;;;;;;5006429;28;20030;-80
2023/01/21 02:29:09;;;;;;;21.92;8.82;;;;;;;;;;4960983;28;20038;-80
2023/01/21 02:32:19;;;;;;;18.52;7.93;;;;;;;;;;4930976;29;20053;-80
2023/01/21 02:34:57;;;;;;;27.35;8.70;;;;;;;;;;5006005;28;20038;-81
2023/01/21 02:37:32;;;;;;;11.52;5.13;;;;;;;;;;5022013;28;20049;-81
2023/01/21 02:40:16;;;;;;;20.08;8.63;;;;;;;;;;5022767;28;20025;-81
2023/01/21 02:42:46;;;;;;;20.42;8.93;;;;;;;;;;5005763;28;20462;-81
2023/01/21 02:45:25;;;;;;;21.50;7.90;;;;;;;;;;5024004;28;20034;-81
2023/01/21 02:48:12;;;;;;;13.52;5.72;;;;;;;;;;5024317;28;20057;-81
2023/01/21 02:50:50;;;;;;;17.63;7.22;;;;;;;;;;5025319;28;20021;-80
2023/01/21 02:53:27;;;;;;;20.73;8.23;;;;;;;;;;5024486;28;20092;-81
2023/01/21 02:55:53;;;;;;;20.75;7.43;;;;;;;;;;5023526;28;20075;-79
2023/01/21 02:58:22;;;;;;;9.27;4.45;;;;;;;;;;5021646;28;20081;-81
2023/01/21 03:01:07;;;;;;;7.57;3.47;;;;;;;;;;5018090;28;20390;-80
2023/01/21 03:03:38;;;;;;;10.10;4.70;;;;;;;;;;5023818;28;20032;-81
2023/01/21 03:06:26;;;;;;;8.70;3.75;;;;;;;;;;5004335;28;20066;-80
2023/01/21 03:08:58;;;;;;;17.05;6.00;;;;;;;;;;5022830;28;20057;-81
2023/01/21 03:11:24;;;;;;;16.50;6.57;;;;;;;;;;5006790;28;20473;-79
2023/01/21 03:17:04;;;;;;;12.20;6.00;;;;;;;;;;5023082;28;20025;-79
2023/01/21 03:19:35;;;;;;;10.13;4.35;;;;;;;;;;5022890;28;20041;-80
2023/01/21 03:22:04;;;;;;;11.00;4.78;;;;;;;;;;5023500;28;20030;-80
2023/01/21 03:24:31;;;;;;;13.02;5.28;;;;;;;;;;5004070;28;20056;-81
2023/01/21 03:26:59;;;;;;;9.57;3.75;;;;;;;;;;5020896;28;20018;-79
2023/01/21 03:29:28;;;;;;;13.27;4.78;;;;;;;;;;5022452;28;20037;-81
2023/01/21 03:31:59;;;;;;;15.18;5.60;;;;;;;;;;5029558;28;20021;-81
2023/01/21 03:34:26;;;;;;;11.07;4.97;;;;;;;;;;5034671;28;20030;-80
2023/01/21 03:37:20;;;;;;;8.48;3.72;;;;;;;;;;5035443;28;20009;-80
2023/01/21 03:40:14;;;;;;;8.90;3.22;;;;;;;;;;5035403;28;20030;-80
2023/01/21 03:42:41;;;;;;;11.55;5.15;;;;;;;;;;5015378;28;20040;-79
2023/01/21 03:45:07;;;;;;;14.43;5.38;;;;;;;;;;5035761;28;20034;-80
2023/01/21 03:47:37;;;;;;;12.07;4.50;;;;;;;;;;5034912;28;20052;-81
2023/01/21 03:50:15;;;;;;;12.98;5.72;;;;;;;;;;5035255;28;20002;-80
2023/01/21 03:52:42;;;;;;;11.75;5.25;;;;;;;;;;5036147;28;20036;-80
2023/01/21 03:55:09;;;;;;;8.93;4.32;;;;;;;;;;5017840;28;20012;-80
2023/01/21 03:57:34;;;;;;;11.25;5.00;;;;;;;;;;5036265;28;20038;-80
2023/01/21 04:00:00;;;;;;;9.80;4.32;;;;;;;;;;5037729;28;20028;-80
2023/01/21 04:02:25;;;;;;;8.75;4.35;;;;;;;;;;5033381;28;20053;-80
2023/01/21 04:04:51;;;;;;;9.98;5.10;;;;;;;;;;5033893;28;20025;-81
2023/01/21 04:07:18;;;;;;;10.00;5.05;;;;;;;;;;5034400;28;20483;-81
2023/01/21 04:09:43;;;;;;;11.18;4.55;;;;;;;;;;5035204;28;20010;-81
2023/01/21 04:12:09;;;;;;;9.02;4.07;;;;;;;;;;5017881;28;20033;-81
2023/01/21 04:14:34;;;;;;;10.30;4.43;;;;;;;;;;5024200;28;20399;-81
2023/01/21 04:16:59;;;;;;;5.72;2.97;;;;;;;;;;5017992;28;20014;-81
2023/01/21 04:19:24;;;;;;;13.63;5.55;;;;;;;;;;5000233;28;20038;-79
2023/01/21 04:21:50;;;;;;;10.82;5.15;;;;;;;;;;5017510;28;20033;-81
2023/01/21 04:24:15;;;;;;;11.70;5.32;;;;;;;;;;5000503;28;20025;-80
2023/01/21 04:26:40;;;;;;;12.27;5.70;;;;;;;;;;5003333;28;20137;-81
2023/01/21 04:29:05;;;;;;;9.98;5.15;;;;;;;;;;5017173;28;20073;-79
2023/01/21 04:31:30;;;;;;;7.97;4.53;;;;;;;;;;5017462;28;20030;-81
2023/01/21 04:33:56;;;;;;;11.07;4.18;;;;;;;;;;5016351;28;20025;-81
2023/01/21 04:36:21;;;;;;;8.30;3.28;;;;;;;;;;4998261;28;20041;-81
2023/01/21 04:38:46;;;;;;;8.90;4.22;;;;;;;;;;4997477;28;20034;-81
2023/01/21 04:41:11;;;;;;;9.70;4.68;;;;;;;;;;4998942;28;20030;-79
2023/01/21 04:43:36;;;;;;;4.03;2.28;;;;;;;;;;5015479;28;20030;-79
2023/01/21 04:46:02;;;;;;;14.70;5.40;;;;;;;;;;5016387;28;20033;-79
2023/01/21 04:48:27;;;;;;;10.27;5.28;;;;;;;;;;5016530;28;20038;-79
2023/01/21 04:50:52;;;;;;;9.40;3.92;;;;;;;;;;4999320;28;20026;-81
2023/01/21 04:53:17;;;;;;;14.48;6.03;;;;;;;;;;5016732;28;20030;-79
2023/01/21 04:55:43;;;;;;;11.25;5.65;;;;;;;;;;5016935;28;20112;-79
2023/01/21 04:58:08;;;;;;;13.77;6.13;;;;;;;;;;5017796;28;20069;-80
2023/01/21 05:00:33;;;;;;;13.27;6.05;;;;;;;;;;5017798;28;20048;-78
2023/01/21 05:02:58;;;;;;;12.73;5.70;;;;;;;;;;5000571;28;20037;-79
2023/01/21 05:05:23;;;;;;;13.07;5.72;;;;;;;;;;5019831;28;20030;-81
2023/01/21 05:07:52;;;;;;;10.98;5.03;;;;;;;;;;5003763;28;20060;-80
2023/01/21 05:10:17;;;;;;;8.95;4.13;;;;;;;;;;5004812;28;20037;-81
2023/01/21 05:12:43;;;;;;;8.50;3.72;;;;;;;;;;5020931;28;20021;-81
2023/01/21 05:15:08;;;;;;;11.00;4.90;;;;;;;;;;5021903;28;20029;-80
2023/01/21 05:17:34;;;;;;;8.43;4.25;;;;;;;;;;5004771;28;20097;-79
2023/01/21 05:20:02;;;;;;;8.30;3.95;;;;;;;;;;5023644;28;20036;-78
2023/01/21 05:22:28;;;;;;;9.75;4.43;;;;;;;;;;5023061;28;20065;-80
2023/01/21 05:24:53;;;;;;;6.28;2.83;;;;;;;;;;5023482;28;20022;-80
2023/01/21 05:27:20;;;;;;;6.90;3.40;;;;;;;;;;5023068;28;20044;-80
2023/01/21 05:29:45;;;;;;;14.30;5.38;;;;;;;;;;5023742;28;20112;-78
2023/01/21 05:32:11;;;;;;;11.68;5.10;;;;;;;;;;5023199;28;20431;-80
2023/01/21 05:34:36;;;;;;;7.88;4.22;;;;;;;;;;5022911;28;20144;-81
2023/01/21 05:37:01;;;;;;;10.00;4.47;;;;;;;;;;5022181;28;20018;-82
2023/01/21 05:39:26;;;;;;;11.57;4.20;;;;;;;;;;5022112;28;20021;-80
2023/01/21 05:41:51;;;;;;;5.43;3.33;;;;;;;;;;5005114;28;20117;-80
2023/01/21 05:44:17;;;;;;;11.38;4.93;;;;;;;;;;5022752;28;20058;-81
2023/01/21 05:46:42;;;;;;;11.80;5.35;;;;;;;;;;5022689;28;20026;-81
2023/01/21 05:49:07;;;;;;;13.50;5.07;;;;;;;;;;5023237;28;20025;-80
2023/01/21 05:51:32;;;;;;;12.57;5.45;;;;;;;;;;5003593;28;20030;-80
2023/01/21 05:53:57;;;;;;;4.00;2.42;;;;;;;;;;5021805;28;20018;-81
2023/01/21 05:56:25;;;;;;;9.48;5.40;;;;;;;;;;5021152;28;20025;-80
2023/01/21 05:58:50;;;;;;;18.10;6.75;;;;;;;;;;5022115;28;20101;-81
2023/01/21 06:01:16;;;;;;;13.75;5.82;;;;;;;;;;5005106;28;20026;-80
2023/01/21 06:03:41;;;;;;;12.82;4.20;;;;;;;;;;5022851;28;20053;-80
2023/01/21 06:06:07;;;;;;;14.13;5.28;;;;;;;;;;5022641;28;20496;-82
2023/01/21 06:08:32;;;;;;;11.38;5.35;;;;;;;;;;5021427;28;20030;-82
2023/01/21 06:10:57;;;;;;;15.90;6.25;;;;;;;;;;5021900;28;20030;-81
2023/01/21 06:13:25;;;;;;;11.98;5.10;;;;;;;;;;5022970;28;20057;-82
2023/01/21 06:15:57;;;;;;;37.72;6.53;;;;;;;;;;5004405;28;20033;-82
2023/01/21 06:18:23;;;;;;;16.88;5.45;;;;;;;;;;5022183;28;20034;-82
2023/01/21 06:20:48;;;;;;;16.63;7.00;;;;;;;;;;5022442;28;20030;-81
2023/01/21 06:23:14;;;;;;;14.05;5.78;;;;;;;;;;5021710;28;20059;-81
2023/01/21 06:25:39;;;;;;;18.20;6.75;;;;;;;;;;5022102;28;20033;-81
2023/01/21 06:28:05;;;;;;;11.02;4.82;;;;;;;;;;5002231;28;20025;-80
2023/01/21 06:30:31;;;;;;;10.38;4.15;;;;;;;;;;5019518;28;20049;-80
2023/01/21 06:32:56;;;;;;;13.18;5.47;;;;;;;;;;5019569;28;20040;-80
2023/01/21 06:35:21;;;;;;;10.70;4.72;;;;;;;;;;5001464;28;20506;-80
2023/01/21 06:37:47;;;;;;;14.30;6.10;;;;;;;;;;5002047;28;20479;-80
2023/01/21 06:40:13;;;;;;;15.30;5.63;;;;;;;;;;5000880;28;20030;-79
2023/01/21 06:42:38;;;;;;;9.73;3.92;;;;;;;;;;5018721;28;20043;-81
2023/01/21 06:45:04;;;;;;;19.00;6.80;;;;;;;;;;5001259;28;20026;-82
2023/01/21 06:47:29;;;;;;;17.65;6.63;;;;;;;;;;5019837;28;20116;-81
2023/01/21 06:49:55;;;;;;;13.48;6.10;;;;;;;;;;5020479;28;20433;-81
2023/01/21 06:52:20;;;;;;;12.35;4.32;;;;;;;;;;5021925;28;20040;-81
2023/01/21 06:54:47;;;;;;;14.35;6.10;;;;;;;;;;5003694;28;20494;-79
2023/01/21 06:57:12;;;;;;;8.25;4.45;;;;;;;;;;5021604;28;20026;-81
2023/01/21 06:59:37;;;;;;;15.55;6.13;;;;;;;;;;5020992;28;20032;-80
2023/01/21 07:02:03;;;;;;;15.45;5.55;;;;;;;;;;5020944;28;20364;-81
2023/01/21 07:04:28;;;;;;;13.55;4.53;;;;;;;;;;5001822;28;20116;-80
2023/01/21 07:06:53;;;;;;;12.02;5.15;;;;;;;;;;5019379;28;20061;-81
2023/01/21 07:09:19;;;;;;;5.65;2.85;;;;;;;;;;5019511;28;20037;-80
2023/01/21 07:11:45;;;;;;;16.45;6.25;;;;;;;;;;5018358;28;20033;-81
2023/01/21 07:14:10;;;;;;;7.10;3.40;;;;;;;;;;5019241;28;20048;-80
2023/01/21 07:16:35;;;;;;;10.10;3.88;;;;;;;;;;5020882;28;20030;-80
2023/01/21 07:19:01;;;;;;;14.60;5.68;;;;;;;;;;5003975;28;20040;-81
2023/01/21 07:21:26;;;;;;;11.65;4.78;;;;;;;;;;5021630;28;20081;-80
2023/01/21 07:23:52;;;;;;;6.97;2.80;;;;;;;;;;5021636;28;20029;-80
2023/01/21 07:26:18;;;;;;;15.20;5.60;;;;;;;;;;5020274;28;20045;-81
2023/01/21 07:28:43;;;;;;;12.32;5.43;;;;;;;;;;5020996;28;20065;-80
2023/01/21 07:31:08;;;;;;;15.23;6.00;;;;;;;;;;5022281;28;20026;-81
2023/01/21 07:33:33;;;;;;;11.05;5.57;;;;;;;;;;5023414;28;20376;-81
2023/01/21 07:35:59;;;;;;;16.38;6.65;;;;;;;;;;5005246;28;20053;-80
2023/01/21 07:38:24;;;;;;;17.88;6.20;;;;;;;;;;5021544;28;20479;-80
2023/01/21 07:40:49;;;;;;;14.48;5.65;;;;;;;;;;5023062;28;20448;-82
2023/01/21 07:43:15;;;;;;;12.43;5.55;;;;;;;;;;5022610;28;20172;-81
2023/01/21 07:45:40;;;;;;;8.68;4.65;;;;;;;;;;5022684;28;20055;-81
2023/01/21 07:48:06;;;;;;;11.45;5.05;;;;;;;;;;5019169;28;20108;-81
2023/01/21 07:50:31;;;;;;;10.00;4.72;;;;;;;;;;5017302;28;20390;-81
2023/01/21 07:52:58;;;;;;;16.45;6.45;;;;;;;;;;5018172;28;20030;-81
2023/01/21 07:55:24;;;;;;;16.73;5.60;;;;;;;;;;5020791;28;20022;-81
2023/01/21 07:57:49;;;;;;;11.15;4.18;;;;;;;;;;5019906;28;20026;-81
2023/01/21 08:00:15;;;;;;;4.63;2.90;;;;;;;;;;5021528;28;20021;-80
2023/01/21 08:02:40;;;;;;;7.90;3.67;;;;;;;;;;5022081;28;20032;-79
2023/01/21 08:05:06;;;;;;;9.00;4.80;;;;;;;;;;5021349;28;20026;-80
2023/01/21 08:07:32;;;;;;;10.38;4.78;;;;;;;;;;5022801;28;20029;-80
2023/01/21 08:09:57;;;;;;;11.63;5.43;;;;;;;;;;5023026;28;20491;-80
2023/01/21 08:12:22;;;;;;;18.25;7.13;;;;;;;;;;5022848;28;20030;-80
2023/01/21 08:14:47;;;;;;;12.80;5.63;;;;;;;;;;5019022;28;20022;-79
2023/01/21 08:17:13;;;;;;;12.80;4.90;;;;;;;;;;5018472;28;20030;-80
2023/01/21 08:19:38;;;;;;;17.42;6.60;;;;;;;;;;5000186;28;20026;-79
2023/01/21 08:22:03;;;;;;;13.15;6.38;;;;;;;;;;5018520;28;20022;-81
2023/01/21 08:24:28;;;;;;;15.30;6.03;;;;;;;;;;5018072;28;20090;-81
2023/01/21 08:26:57;;;;;;;12.65;4.43;;;;;;;;;;5018010;28;20022;-81
2023/01/21 08:29:22;;;;;;;15.88;5.90;;;;;;;;;;5017476;28;20029;-81
2023/01/21 08:31:48;;;;;;;14.70;5.72;;;;;;;;;;5018899;28;20048;-81
2023/01/21 08:34:14;;;;;;;10.52;5.32;;;;;;;;;;5018130;28;20033;-81
2023/01/21 08:36:39;;;;;;;11.60;4.82;;;;;;;;;;5017657;28;20422;-82
2023/01/21 08:39:07;;;;;;;8.52;4.47;;;;;;;;;;5001497;28;20022;-81
2023/01/21 08:41:33;;;;;;;11.85;5.18;;;;;;;;;;5023293;28;20497;-80
2023/01/21 08:43:58;;;;;;;10.52;4.78;;;;;;;;;;5023491;28;20030;-81
2023/01/21 08:46:23;;;;;;;9.93;4.78;;;;;;;;;;5022589;28;20391;-82
2023/01/21 08:48:50;;;;;;;10.70;4.15;;;;;;;;;;5020190;28;20029;-81
2023/01/21 08:51:15;;;;;;;7.22;3.75;;;;;;;;;;5021632;28;20030;-79
2023/01/21 08:53:40;;;;;;;10.02;5.13;;;;;;;;;;5023973;28;20092;-80
2023/01/21 08:56:06;;;;;;;8.93;4.55;;;;;;;;;;5024671;28;20029;-80
2023/01/21 08:58:32;;;;;;;10.75;4.93;;;;;;;;;;5022076;28;20059;-81
2023/01/21 09:00:57;;;;;;;14.40;6.63;;;;;;;;;;5003977;28;20025;-81
2023/01/21 09:03:23;;;;;;;14.65;5.85;;;;;;;;;;5022218;28;20029;-82
2023/01/21 09:05:50;;;;;;;7.82;3.95;;;;;;;;;;5004868;28;20029;-80
2023/01/21 09:08:16;;;;;;;11.93;4.60;;;;;;;;;;5022293;28;20029;-80
2023/01/21 09:10:59;;;;;;;14.27;6.50;;;;;;;;;;5022803;28;20018;-81
2023/01/21 09:13:25;;;;;;;13.20;5.70;;;;;;;;;;5021441;28;20490;-79
2023/01/21 09:15:51;;;;;;;12.88;5.82;;;;;;;;;;5021037;28;20554;-80
2023/01/21 09:18:16;;;;;;;13.00;6.60;;;;;;;;;;5020838;28;20065;-81
2023/01/21 09:20:41;;;;;;;14.95;5.93;;;;;;;;;;5019929;28;20029;-81
2023/01/21 09:23:23;;;;;;;13.05;6.47;;;;;;;;;;5021795;28;20033;-80
2023/01/21 09:25:53;;;;;;;14.77;6.53;;;;;;;;;;5021804;28;20383;-81
2023/01/21 09:28:20;;;;;;;9.73;5.22;;;;;;;;;;5021036;28;20030;-80
2023/01/21 09:30:45;;;;;;;5.82;3.22;;;;;;;;;;5021023;28;20029;-80
2023/01/21 09:33:12;;;;;;;12.15;4.47;;;;;;;;;;5021277;28;20032;-80
2023/01/21 09:35:37;;;;;;;12.32;5.80;;;;;;;;;;5003180;28;20397;-80
2023/01/21 09:38:02;;;;;;;12.73;6.10;;;;;;;;;;5020975;28;20057;-79
2023/01/21 09:40:28;;;;;;;7.72;4.22;;;;;;;;;;5021134;28;20034;-79
2023/01/21 09:42:53;;;;;;;10.07;4.88;;;;;;;;;;5020697;28;20033;-80
2023/01/21 09:45:19;;;;;;;11.57;5.75;;;;;;;;;;5021600;28;20021;-79
2023/01/21 09:47:46;;;;;;;10.65;4.75;;;;;;;;;;5025324;28;20037;-80
2023/01/21 09:50:19;;;;;;;15.52;5.80;;;;;;;;;;5025456;28;20033;-82
2023/01/21 09:52:47;;;;;;;13.32;6.43;;;;;;;;;;5026582;28;20029;-81
2023/01/21 09:55:18;;;;;;;12.02;5.75;;;;;;;;;;5025763;28;20049;-81
2023/01/21 09:57:59;;;;;;;13.27;6.15;;;;;;;;;;5025950;28;20032;-79
2023/01/21 10:00:29;;;;;;;12.18;5.65;;;;;;;;;;5025898;28;20037;-83
2023/01/21 10:03:07;;;;;;;10.07;5.15;;;;;;;;;;5026076;28;20053;-82
2023/01/21 10:05:41;;;;;;;10.20;5.50;;;;;;;;;;5025920;28;20025;-82
2023/01/21 10:08:23;;;;;;;13.82;6.28;;;;;;;;;;5025322;28;20495;-81
2023/01/21 10:11:13;;;;;;;7.15;3.67;;;;;;;;;;5024526;28;20109;-81
2023/01/21 10:14:15;;;;;;;14.45;5.63;;;;;;;;;;5022137;28;20017;-83
2023/01/21 10:17:18;;;;;;;13.70;6.05;;;;;;;;;;5022820;28;20026;-84
2023/01/21 10:19:51;;;;;;;13.20;6.05;;;;;;;;;;5023089;28;20022;-83
2023/01/21 10:22:22;;;;;;;13.98;5.80;;;;;;;;;;5023096;28;20022;-84
2023/01/21 10:24:54;;;;;;;12.73;5.80;;;;;;;;;;5024142;28;20034;-82
2023/01/21 10:27:22;;;;;;;12.68;6.50;;;;;;;;;;5022949;28;20057;-74
2023/01/21 10:29:51;;;;;;;10.52;5.00;;;;;;;;;;5016526;28;20030;-71
2023/01/21 10:32:23;;;;;;;11.65;5.80;;;;;;;;;;5015836;28;20032;-71
2023/01/21 10:34:53;;;;;;;9.10;4.20;;;;;;;;;;5015871;28;20037;-70
2023/01/21 10:37:55;;;;;;;6.68;3.80;;;;;;;;;;4998659;28;20022;-69
2023/01/21 10:40:41;;;;;;;13.25;5.43;;;;;;;;;;5015897;28;20387;-69
2023/01/21 10:43:16;;;;;;;12.70;6.00;;;;;;;;;;4998018;28;20030;-69
2023/01/21 10:45:55;;;;;;;7.80;3.58;;;;;;;;;;5015643;28;20026;-71
2023/01/21 10:48:37;;;;;;;11.00;5.43;;;;;;;;;;5015445;28;20025;-69
2023/01/21 10:51:26;;;;;;;13.57;5.88;;;;;;;;;;5015631;28;20033;-69
2023/01/21 10:53:59;;;;;;;15.48;6.07;;;;;;;;;;5015534;28;20026;-69
2023/01/21 10:56:46;;;;;;;9.48;5.13;;;;;;;;;;5015085;28;20502;-71
2023/01/21 10:59:19;;;;;;;10.93;4.70;;;;;;;;;;5015328;28;20066;-69
2023/01/21 11:01:49;;;;;;;14.23;5.25;;;;;;;;;;5015105;28;20030;-69
2023/01/21 11:04:18;;;;;;;11.23;5.57;;;;;;;;;;5015323;28;20037;-70
2023/01/21 11:06:45;;;;;;;13.00;6.00;;;;;;;;;;5015111;28;20038;-70
2023/01/21 11:09:13;;;;;;;8.75;3.40;;;;;;;;;;4981592;28;20391;-69
2023/01/21 11:11:40;;;;;;;14.82;5.43;;;;;;;;;;5014787;28;20542;-69
2023/01/21 11:14:05;;;;;;;13.52;6.15;;;;;;;;;;5015605;28;20052;-70
2023/01/21 11:16:46;;;;;;;9.57;4.22;;;;;;;;;;4997500;28;20410;-70
2023/01/21 11:19:17;;;;;;;7.75;4.28;;;;;;;;;;4997985;28;20037;-69
2023/01/21 11:22:18;;;;;;;11.18;5.38;;;;;;;;;;4996952;28;20076;-70
2023/01/21 11:24:50;;;;;;;17.67;9.90;;;;;;;;;;5075669;28;20380;-80
2023/01/21 11:27:20;;;;;;;10.00;4.78;;;;;;;;;;5074949;28;20033;-81
2023/01/21 11:29:47;;;;;;;11.35;6.10;;;;;;;;;;5077373;28;20052;-82
2023/01/21 11:32:19;;;;;;;7.93;4.65;;;;;;;;;;5074526;28;20024;-82
2023/01/21 11:34:47;;;;;;;11.95;6.07;;;;;;;;;;5076055;28;20017;-82
2023/01/21 11:37:24;;;;;;;9.50;4.93;;;;;;;;;;5076033;28;20035;-82
2023/01/21 11:39:55;;;;;;;15.38;6.18;;;;;;;;;;5075280;28;20044;-81
2023/01/21 11:42:21;;;;;;;12.38;6.05;;;;;;;;;;5077069;28;20028;-80
2023/01/21 11:45:00;;;;;;;8.50;4.72;;;;;;;;;;5076635;28;20393;-81
2023/01/21 11:47:49;;;;;;;11.82;6.38;;;;;;;;;;5076792;28;20025;-81
2023/01/21 11:50:15;;;;;;;11.57;5.70;;;;;;;;;;5074973;28;20029;-81
2023/01/21 11:52:41;;;;;;;12.82;6.68;;;;;;;;;;5076039;28;20028;-81
2023/01/21 11:55:20;;;;;;;13.35;5.13;;;;;;;;;;5075611;28;20128;-81
2023/01/21 11:57:50;;;;;;;7.90;4.35;;;;;;;;;;5076171;28;20025;-81
2023/01/21 12:00:19;;;;;;;9.63;5.00;;;;;;;;;;5075753;28;20108;-81
2023/01/21 12:02:49;;;;;;;8.93;4.75;;;;;;;;;;5076187;28;20023;-82
2023/01/21 12:05:28;;;;;;;13.27;6.47;;;;;;;;;;5076213;28;20547;-81
2023/01/21 12:07:54;;;;;;;12.70;6.55;;;;;;;;;;5073309;28;20054;-81
2023/01/21 12:10:22;;;;;;;9.57;5.38;;;;;;;;;;5075075;28;20082;-82
2023/01/21 12:13:08;;;;;;;10.00;5.22;;;;;;;;;;5073323;28;20020;-81
2023/01/21 12:15:51;;;;;;;6.82;3.72;;;;;;;;;;5074657;28;20032;-81
2023/01/21 12:18:23;;;;;;;11.40;5.85;;;;;;;;;;5074413;28;20029;-81
2023/01/21 12:20:56;;;;;;;7.50;3.80;;;;;;;;;;5075010;28;20025;-81
2023/01/21 12:23:48;;;;;;;12.75;5.80;;;;;;;;;;5074374;28;20035;-80
2023/01/21 12:26:44;;;;;;;10.45;4.75;;;;;;;;;;5074466;28;20033;-81
2023/01/21 12:29:46;;;;;;;11.50;6.35;;;;;;;;;;5074884;28;20074;-80
2023/01/21 12:32:26;;;;;;;10.05;4.20;;;;;;;;;;5074827;28;20024;-81
2023/01/21 12:34:57;;;;;;;10.98;5.22;;;;;;;;;;5068656;28;20021;-81
2023/01/21 12:37:52;;;;;;;14.63;5.70;;;;;;;;;;5059477;28;20554;-80
2023/01/21 12:40:28;;;;;;;8.07;3.78;;;;;;;;;;5062040;28;20032;-80
2023/01/21 12:42:58;;;;;;;5.55;3.42;;;;;;;;;;5060904;28;20056;-80
2023/01/21 12:45:30;;;;;;;7.15;3.33;;;;;;;;;;5061012;28;20040;-79
2023/01/21 12:48:02;;;;;;;12.98;5.57;;;;;;;;;;5060105;28;20029;-79
2023/01/21 12:50:38;;;;;;;7.40;3.33;;;;;;;;;;5059153;28;20024;-78
2023/01/21 12:53:34;;;;;;;9.23;4.45;;;;;;;;;;5059821;28;20028;-81
2023/01/21 12:56:22;;;;;;;9.57;4.82;;;;;;;;;;5058094;28;20024;-81
2023/01/21 12:58:57;;;;;;;10.55;5.32;;;;;;;;;;5074894;28;20039;-82
2023/01/21 13:01:45;;;;;;;5.93;3.70;;;;;;;;;;5071408;28;20037;-81
2023/01/21 13:04:37;;;;;;;7.35;3.90;;;;;;;;;;5061739;28;20021;-81
2023/01/21 13:07:13;;;;;;;13.40;5.50;;;;;;;;;;5061075;28;20068;-81
2023/01/21 13:10:00;;;;;;;7.95;3.78;;;;;;;;;;5071950;28;20085;-80
2023/01/21 13:12:29;;;;;;;9.80;5.10;;;;;;;;;;5078574;28;20032;-80
2023/01/21 13:15:01;;;;;;;7.88;4.28;;;;;;;;;;5076039;28;20028;-81
2023/01/21 13:17:31;;;;;;;7.57;4.35;;;;;;;;;;5078343;28;20152;-80
2023/01/21 13:19:58;;;;;;;8.52;4.95;;;;;;;;;;5077696;28;20067;-80
2023/01/21 13:22:38;;;;;;;8.30;4.20;;;;;;;;;;5077156;28;20001;-83
2023/01/21 13:25:31;;;;;;;8.30;3.97;;;;;;;;;;5078889;28;20042;-81
2023/01/21 13:28:10;;;;;;;7.63;3.45;;;;;;;;;;5077436;28;20009;-80
2023/01/21 13:30:43;;;;;;;8.88;4.82;;;;;;;;;;5078628;28;20024;-81
2023/01/21 13:33:20;;;;;;;8.43;4.53;;;;;;;;;;5078494;28;20013;-80
2023/01/21 13:36:09;;;;;;;5.40;3.53;;;;;;;;;;5068672;28;20485;-81
2023/01/21 13:38:44;;;;;;;9.60;5.22;;;;;;;;;;5059903;28;20078;-81
2023/01/21 13:41:42;;;;;;;12.15;5.93;;;;;;;;;;5059956;28;20483;-81
2023/01/21 13:44:26;;;;;;;7.68;3.92;;;;;;;;;;5058880;28;20386;-79
2023/01/21 13:47:04;;;;;;;10.10;5.35;;;;;;;;;;5055674;28;20025;-81
2023/01/21 13:49:43;;;;;;;13.48;6.28;;;;;;;;;;5057487;28;20075;-80
2023/01/21 13:52:20;;;;;;;9.55;4.60;;;;;;;;;;5057377;28;20088;-80
2023/01/21 13:55:00;;;;;;;7.63;4.03;;;;;;;;;;5058737;28;20021;-80
2023/01/21 13:57:47;;;;;;;7.68;3.75;;;;;;;;;;5059812;28;20033;-80
2023/01/21 14:00:30;;;;;;;10.45;4.68;;;;;;;;;;5057612;28;20075;-80
2023/01/21 14:03:14;;;;;;;8.10;5.10;;;;;;;;;;5056682;28;20025;-80
2023/01/21 14:06:01;;;;;;;14.63;5.45;;;;;;;;;;5057644;28;20078;-80
2023/01/21 14:08:36;;;;;;;11.05;5.43;;;;;;;;;;5059247;28;20025;-80
2023/01/21 14:11:11;;;;;;;11.82;5.20;;;;;;;;;;5058879;28;20020;-80
2023/01/21 14:14:10;;;;;;;6.90;3.95;;;;;;;;;;5058553;28;20032;-81
2023/01/21 14:17:17;;;;;;;7.63;4.10;;;;;;;;;;5058655;28;20047;-81
2023/01/21 14:20:05;;;;;;;10.20;4.13;;;;;;;;;;5053003;28;20048;-79
2023/01/21 14:23:05;;;;;;;4.35;2.45;;;;;;;;;;5058692;28;20025;-80
2023/01/21 14:26:17;;;;;;;11.60;4.97;;;;;;;;;;5056287;28;20032;-80
2023/01/21 14:28:53;;;;;;;9.30;5.30;;;;;;;;;;5051372;28;20047;-80
2023/01/21 14:31:22;;;;;;;6.80;3.58;;;;;;;;;;5058119;28;20021;-80
2023/01/21 14:33:54;;;;;;;6.03;3.75;;;;;;;;;;5058321;28;20028;-80
2023/01/21 14:36:42;;;;;;;6.03;3.28;;;;;;;;;;5057411;28;20023;-80
2023/01/21 14:39:42;;;;;;;4.97;2.33;;;;;;;;;;5058238;28;20048;-81
2023/01/21 14:42:12;;;;;;;6.18;3.22;;;;;;;;;;5058272;28;20466;-80
2023/01/21 14:44:41;;;;;;;8.63;4.50;;;;;;;;;;5058520;28;20024;-80
2023/01/21 14:47:14;;;;;;;8.32;4.60;;;;;;;;;;5057806;28;20032;-81
2023/01/21 14:49:43;;;;;;;6.22;3.58;;;;;;;;;;5060212;28;20378;-81
2023/01/21 14:52:13;;;;;;;10.32;5.18;;;;;;;;;;5059941;28;20036;-81
2023/01/21 14:54:44;;;;;;;8.63;4.13;;;;;;;;;;5058235;28;20385;-81
2023/01/21 14:57:22;;;;;;;6.43;3.65;;;;;;;;;;5059471;28;20027;-81
2023/01/21 14:59:48;;;;;;;6.95;3.72;;;;;;;;;;5060430;28;20477;-82
2023/01/21 15:02:29;;;;;;;7.25;4.00;;;;;;;;;;5059123;28;20035;-81